This is the latest recevied weather packets stored in our database for station/object BARLOW-WX. If no packets are shown the sender has not sent any weather packets the latest 10 day(s).
| Time | Temp. | Humidity | Pressure | Rain* | Wind** | Luminosity | Snow |
|---|---|---|---|---|---|---|---|
| 1777123893 | 10° C | 91% | 984.7 hPa | 0 mm | - | - | - |
| 1777122978 | 10° C | 91% | 984.7 hPa | 0 mm | - | - | - |
| 1777122099 | 9.44° C | 91% | 984.7 hPa | 0 mm | - | - | - |
| 1777121177 | 9.44° C | 95% | 983.8 hPa | 0 mm | - | - | - |
| 1777120293 | 9.44° C | 91% | 984.3 hPa | 0 mm | - | - | - |
| 1777119377 | 9.44° C | 91% | 984.4 hPa | 0 mm | - | - | - |
| 1777118509 | 9.44° C | 91% | 984.4 hPa | 0 mm | - | - | - |
| 1777117578 | 9.44° C | 93% | 983.3 hPa | 0 mm | - | - | - |
| 1777116696 | 9.44° C | 92% | 983.9 hPa | 0 mm | - | - | - |
| 1777115782 | 9.44° C | 92% | 983.9 hPa | 0 mm | - | - | - |
| 1777114903 | 9.44° C | 92% | 983.9 hPa | 0 mm | - | - | - |
| 1777113095 | 10° C | 94% | 983.3 hPa | 0 mm | - | - | - |
| 1777112182 | 10° C | 94% | 983.3 hPa | 0 mm | - | - | - |
| 1777111300 | 10° C | 90% | 983.1 hPa | 0 mm | - | - | - |
| 1777110383 | 10° C | 92% | 982.1 hPa | 0 mm | - | - | - |
| 1777109494 | 10° C | 92% | 982.1 hPa | 0 mm | - | - | - |
| 1777108578 | 10.56° C | 92% | 982.1 hPa | 0 mm | - | - | - |
| 1777107699 | 10.56° C | 92% | 982.1 hPa | 0 mm | - | - | - |
| 1777106783 | 10.56° C | 91% | 981.8 hPa | 0 mm | - | - | - |
| 1777105891 | 10.56° C | 88% | 981.8 hPa | 0 mm | - | - | - |
| 1777104982 | 11.11° C | 88% | 981.8 hPa | 0 mm | - | - | - |
| 1777104101 | 11.67° C | 88% | 981.8 hPa | 0 mm | - | - | - |
| 1777103182 | 12.22° C | 94% | 980.8 hPa | 0 mm | - | - | - |
| 1777102290 | 12.22° C | 94% | 980.8 hPa | 0 mm | - | - | - |
| 1777101382 | 12.22° C | 94% | 980.8 hPa | 0 mm | - | - | - |
* Rain latest hour (hover to see other rain measurements)
** Current wind speed in m/s (hover to see current wind gust speed)